Time;durP1;ratioP1;P1;durP2;ratioP2;P2;SDS_P1;SDS_P2;PMS_P1;PMS_P2;Temp;Humidity;BMP_temperature;BMP_pressure;BME280_temperature;BME280_humidity;BME280_pressure;Samples;Min_cycle;Max_cycle;Signal;HPM_P1;HPM_P2
2022/07/26 00:01:14;;;;;;;6.57;5.15;;;;;;;;;;6267240;28;20324;-73
2022/07/26 00:04:15;;;;;;;9.75;5.78;;;;;;;;;;6270715;28;20124;-74
2022/07/26 00:07:17;;;;;;;8.57;6.10;;;;;;;;;;6270894;28;20049;-73
2022/07/26 00:10:19;;;;;;;9.93;6.53;;;;;;;;;;6270300;28;20053;-74
2022/07/26 00:13:21;;;;;;;11.68;6.75;;;;;;;;;;6267709;28;20069;-74
2022/07/26 00:16:24;;;;;;;10.77;6.10;;;;;;;;;;6269333;28;20080;-74
2022/07/26 00:19:26;;;;;;;8.23;5.90;;;;;;;;;;6268282;28;20491;-74
2022/07/26 00:22:34;;;;;;;11.68;6.43;;;;;;;;;;6268989;28;20091;-74
2022/07/26 00:25:36;;;;;;;9.15;6.22;;;;;;;;;;6265776;28;20045;-75
2022/07/26 00:28:37;;;;;;;9.80;6.75;;;;;;;;;;6269066;28;20087;-75
2022/07/26 00:31:40;;;;;;;12.00;6.95;;;;;;;;;;6265776;28;20434;-74
2022/07/26 00:34:42;;;;;;;8.63;6.95;;;;;;;;;;6264414;28;20045;-73
2022/07/26 00:37:44;;;;;;;8.80;6.15;;;;;;;;;;6273309;28;20045;-73
2022/07/26 00:40:45;;;;;;;11.88;6.15;;;;;;;;;;6270205;28;20079;-73
2022/07/26 00:43:58;;;;;;;8.55;5.85;;;;;;;;;;6265250;28;20143;-73
2022/07/26 00:47:01;;;;;;;7.20;5.70;;;;;;;;;;6271775;28;20057;-73
2022/07/26 00:50:04;;;;;;;11.63;5.80;;;;;;;;;;6271471;28;20061;-73
2022/07/26 00:53:06;;;;;;;9.63;5.65;;;;;;;;;;6269659;28;20067;-73
2022/07/26 00:56:07;;;;;;;8.20;5.93;;;;;;;;;;6268304;28;20244;-73
2022/07/26 00:59:09;;;;;;;7.43;5.50;;;;;;;;;;6270587;28;20064;-73
2022/07/26 01:02:12;;;;;;;8.52;5.30;;;;;;;;;;6268502;28;20095;-73
2022/07/26 01:05:14;;;;;;;9.25;5.63;;;;;;;;;;6263701;28;20053;-74
2022/07/26 01:08:15;;;;;;;8.27;5.40;;;;;;;;;;6265897;28;20049;-72
2022/07/26 01:11:17;;;;;;;7.32;4.72;;;;;;;;;;6266830;28;20044;-72
2022/07/26 01:14:20;;;;;;;11.32;5.25;;;;;;;;;;6268499;28;20065;-73
2022/07/26 01:17:23;;;;;;;8.13;5.05;;;;;;;;;;6264297;28;20049;-72
2022/07/26 01:20:25;;;;;;;12.43;5.30;;;;;;;;;;6264718;28;20044;-72
2022/07/26 01:23:29;;;;;;;11.32;5.03;;;;;;;;;;6265368;28;20053;-73
2022/07/26 01:26:31;;;;;;;6.55;4.47;;;;;;;;;;6266622;28;20045;-74
2022/07/26 01:29:33;;;;;;;7.05;4.85;;;;;;;;;;6267725;28;20048;-72
2022/07/26 01:32:35;;;;;;;9.60;4.65;;;;;;;;;;6265756;28;20052;-73
2022/07/26 01:35:36;;;;;;;8.10;4.72;;;;;;;;;;6266853;28;20057;-71
2022/07/26 01:38:39;;;;;;;6.85;4.13;;;;;;;;;;6268501;28;20045;-72
2022/07/26 01:41:41;;;;;;;8.73;5.07;;;;;;;;;;6266432;28;20118;-73
2022/07/26 01:44:42;;;;;;;8.80;4.70;;;;;;;;;;6264768;28;20049;-73
2022/07/26 01:47:48;;;;;;;7.72;4.20;;;;;;;;;;6268179;28;20049;-72
2022/07/26 01:50:50;;;;;;;7.13;5.32;;;;;;;;;;6268585;28;20052;-73
2022/07/26 01:53:53;;;;;;;8.63;5.32;;;;;;;;;;6262597;28;20370;-71
2022/07/26 01:56:55;;;;;;;8.90;4.88;;;;;;;;;;6266731;28;20060;-72
2022/07/26 01:59:56;;;;;;;6.10;4.57;;;;;;;;;;6264247;28;20059;-72
2022/07/26 02:02:58;;;;;;;7.00;4.78;;;;;;;;;;6263087;28;20045;-73
2022/07/26 02:06:00;;;;;;;6.72;4.68;;;;;;;;;;6266148;28;20044;-73
2022/07/26 02:09:03;;;;;;;9.45;4.65;;;;;;;;;;6263598;28;20060;-73
2022/07/26 02:12:05;;;;;;;6.85;4.75;;;;;;;;;;6262028;28;20328;-73
2022/07/26 02:15:08;;;;;;;11.18;4.90;;;;;;;;;;6266789;28;20057;-72
2022/07/26 02:18:09;;;;;;;9.45;5.20;;;;;;;;;;6270603;28;20231;-72
2022/07/26 02:21:11;;;;;;;5.60;5.00;;;;;;;;;;6272400;28;20064;-72
2022/07/26 02:24:14;;;;;;;8.13;5.65;;;;;;;;;;6271118;28;20049;-74
2022/07/26 02:27:16;;;;;;;8.57;5.00;;;;;;;;;;6271514;28;20060;-78
2022/07/26 02:30:18;;;;;;;8.95;5.13;;;;;;;;;;6271568;28;20061;-80
2022/07/26 02:33:20;;;;;;;8.98;5.45;;;;;;;;;;6269635;28;20057;-85
2022/07/26 02:36:21;;;;;;;10.38;6.05;;;;;;;;;;6271564;28;20053;-82
2022/07/26 02:39:26;;;;;;;7.95;5.20;;;;;;;;;;6268243;28;20103;-75
2022/07/26 02:42:28;;;;;;;9.00;5.55;;;;;;;;;;6272264;28;20057;-76
2022/07/26 02:45:29;;;;;;;9.48;5.60;;;;;;;;;;6269731;28;20049;-75
2022/07/26 02:48:31;;;;;;;11.98;6.00;;;;;;;;;;6275558;28;20052;-76
2022/07/26 02:51:33;;;;;;;8.82;5.60;;;;;;;;;;6271973;28;20045;-75
2022/07/26 02:54:36;;;;;;;8.77;5.70;;;;;;;;;;6274923;28;20060;-75
2022/07/26 02:57:37;;;;;;;7.57;5.05;;;;;;;;;;6271222;28;20048;-76
2022/07/26 03:00:39;;;;;;;8.00;5.75;;;;;;;;;;6274377;28;20148;-74
2022/07/26 03:03:41;;;;;;;9.50;5.80;;;;;;;;;;6276095;28;20053;-75
2022/07/26 03:06:42;;;;;;;8.10;5.13;;;;;;;;;;6273481;28;20056;-75
2022/07/26 03:09:45;;;;;;;9.10;5.45;;;;;;;;;;6275057;28;20060;-76
2022/07/26 03:12:47;;;;;;;8.90;5.53;;;;;;;;;;6271179;28;20072;-75
2022/07/26 03:15:49;;;;;;;11.23;5.85;;;;;;;;;;6268016;28;20049;-74
2022/07/26 03:18:50;;;;;;;7.57;4.97;;;;;;;;;;6272966;28;20041;-74
2022/07/26 03:21:52;;;;;;;9.07;5.50;;;;;;;;;;6269150;28;20057;-74
2022/07/26 03:24:55;;;;;;;7.93;5.45;;;;;;;;;;6267066;28;20049;-74
2022/07/26 03:27:57;;;;;;;;;;;;;;;;;;6267310;28;20116;-74
2022/07/26 03:30:59;;;;;;;7.78;5.57;;;;;;;;;;6272768;28;19917;-74
2022/07/26 03:34:00;;;;;;;7.32;5.63;;;;;;;;;;6274167;28;20355;-75
2022/07/26 03:37:02;;;;;;;8.52;5.15;;;;;;;;;;6269023;28;20048;-76
2022/07/26 03:40:07;;;;;;;10.18;4.80;;;;;;;;;;6267620;28;20053;-75
2022/07/26 03:43:09;;;;;;;8.55;5.30;;;;;;;;;;6266975;28;20052;-74
2022/07/26 03:46:11;;;;;;;8.20;5.07;;;;;;;;;;6270851;28;20049;-74
2022/07/26 03:49:12;;;;;;;9.95;5.43;;;;;;;;;;6271049;28;20114;-74
2022/07/26 03:52:14;;;;;;;8.00;4.78;;;;;;;;;;6273140;28;20049;-75
2022/07/26 03:58:37;;;;;;;8.85;5.22;;;;;;;;;;6268915;28;20049;-76
2022/07/26 04:01:40;;;;;;;8.73;5.53;;;;;;;;;;6267000;28;20056;-74
2022/07/26 04:04:42;;;;;;;9.85;5.18;;;;;;;;;;6267558;28;20239;-74
2022/07/26 04:07:44;;;;;;;7.35;5.63;;;;;;;;;;6265871;28;20090;-75
2022/07/26 04:10:49;;;;;;;8.73;5.33;;;;;;;;;;6268994;28;20053;-75
2022/07/26 04:13:51;;;;;;;8.32;5.00;;;;;;;;;;6269371;28;20052;-76
2022/07/26 04:16:53;;;;;;;8.18;5.60;;;;;;;;;;6268229;28;20055;-76
2022/07/26 04:19:55;;;;;;;10.00;5.38;;;;;;;;;;6270113;28;20235;-75
2022/07/26 04:22:56;;;;;;;13.25;5.82;;;;;;;;;;6266248;28;20112;-75
2022/07/26 04:26:00;;;;;;;8.27;5.50;;;;;;;;;;6266381;28;20057;-75
2022/07/26 04:29:01;;;;;;;10.27;5.55;;;;;;;;;;6269267;28;20067;-76
2022/07/26 04:32:03;;;;;;;8.18;5.70;;;;;;;;;;6269094;28;20053;-76
2022/07/26 04:35:05;;;;;;;7.78;5.43;;;;;;;;;;6268718;28;20065;-76
2022/07/26 04:38:07;;;;;;;11.18;5.60;;;;;;;;;;6265865;28;20120;-75
2022/07/26 04:41:10;;;;;;;6.80;5.22;;;;;;;;;;6267673;28;20126;-75
2022/07/26 04:44:12;;;;;;;;;;;;;;;;;;6267467;28;20056;-75
2022/07/26 04:47:13;;;;;;;8.50;5.72;;;;;;;;;;6265499;28;19924;-76
2022/07/26 04:50:15;;;;;;;9.00;5.35;;;;;;;;;;6269615;28;20087;-75
2022/07/26 04:53:17;;;;;;;8.18;5.60;;;;;;;;;;6266674;28;20324;-74
2022/07/26 04:56:20;;;;;;;7.43;5.32;;;;;;;;;;6268561;28;20068;-73
2022/07/26 04:59:22;;;;;;;11.35;5.10;;;;;;;;;;6268128;28;20205;-74
2022/07/26 05:02:23;;;;;;;8.10;5.47;;;;;;;;;;6263031;28;20052;-75
2022/07/26 05:05:27;;;;;;;9.60;5.65;;;;;;;;;;6266026;28;20053;-77
2022/07/26 05:08:29;;;;;;;9.82;6.07;;;;;;;;;;6264937;28;20076;-76
2022/07/26 05:11:32;;;;;;;9.75;5.88;;;;;;;;;;6266519;28;20219;-75
2022/07/26 05:14:33;;;;;;;;;;;;;;;;;;6268712;28;20057;-73
2022/07/26 05:17:37;;;;;;;10.32;5.93;;;;;;;;;;6265179;28;19940;-75
2022/07/26 05:20:39;;;;;;;9.70;5.93;;;;;;;;;;6265002;28;20099;-75
2022/07/26 05:23:41;;;;;;;8.43;6.10;;;;;;;;;;6264610;28;20102;-76
2022/07/26 05:26:44;;;;;;;10.95;6.60;;;;;;;;;;6265456;28;20103;-75
2022/07/26 05:29:45;;;;;;;13.68;6.18;;;;;;;;;;6266195;28;20049;-75
2022/07/26 05:32:47;;;;;;;9.57;6.30;;;;;;;;;;6266666;28;20116;-74
2022/07/26 05:35:49;;;;;;;11.32;6.10;;;;;;;;;;6265906;28;20056;-75
2022/07/26 05:38:50;;;;;;;9.35;6.88;;;;;;;;;;6265701;28;20090;-74
2022/07/26 05:41:53;;;;;;;11.35;6.57;;;;;;;;;;6266708;28;20047;-74
2022/07/26 05:44:55;;;;;;;9.73;6.30;;;;;;;;;;6268909;28;20060;-74
2022/07/26 05:47:57;;;;;;;8.15;6.00;;;;;;;;;;6265958;28;20061;-75
2022/07/26 05:50:59;;;;;;;11.20;7.60;;;;;;;;;;6265012;28;20049;-73
2022/07/26 05:54:01;;;;;;;20.10;7.50;;;;;;;;;;6264218;28;20120;-71
2022/07/26 05:57:04;;;;;;;8.35;6.55;;;;;;;;;;6265581;28;20064;-74
2022/07/26 06:00:08;;;;;;;10.32;6.00;;;;;;;;;;6265639;28;20087;-74
2022/07/26 06:03:24;;;;;;;;;;;;;;;;;;6264531;28;20053;-74
2022/07/26 06:06:26;;;;;;;10.55;6.00;;;;;;;;;;6270929;28;19988;-76
2022/07/26 06:09:28;;;;;;;11.13;6.53;;;;;;;;;;6266999;28;20055;-71
2022/07/26 06:12:31;;;;;;;11.50;5.90;;;;;;;;;;6267490;28;20233;-69
2022/07/26 06:15:32;;;;;;;13.25;6.20;;;;;;;;;;6266626;28;20347;-73
2022/07/26 06:18:34;;;;;;;9.88;6.25;;;;;;;;;;6266929;28;20049;-72
2022/07/26 06:21:36;;;;;;;10.82;6.28;;;;;;;;;;6268273;28;20358;-76
2022/07/26 06:24:37;;;;;;;14.68;7.07;;;;;;;;;;6266129;28;20046;-74
2022/07/26 06:27:40;;;;;;;7.97;6.10;;;;;;;;;;6267084;28;20255;-74
2022/07/26 06:30:43;;;;;;;10.55;6.72;;;;;;;;;;6269681;28;20045;-74
2022/07/26 06:33:45;;;;;;;;;;;;;;;;;;6273229;28;20096;-73
2022/07/26 06:36:47;;;;;;;10.90;6.90;;;;;;;;;;6267458;28;19925;-74
2022/07/26 06:39:48;;;;;;;14.70;6.10;;;;;;;;;;6263292;28;20170;-74
2022/07/26 06:42:52;;;;;;;11.00;5.80;;;;;;;;;;6268948;28;20276;-74
2022/07/26 06:45:53;;;;;;;11.02;6.15;;;;;;;;;;6270784;28;20049;-74
2022/07/26 06:48:55;;;;;;;13.10;6.07;;;;;;;;;;6263220;28;20064;-75
2022/07/26 06:51:57;;;;;;;8.73;6.28;;;;;;;;;;6270325;28;20339;-74
2022/07/26 06:54:58;;;;;;;7.13;6.40;;;;;;;;;;6267820;28;20064;-73
2022/07/26 06:58:01;;;;;;;10.07;6.28;;;;;;;;;;6264845;28;20049;-74
2022/07/26 07:01:03;;;;;;;;;;;;;;;;;;6269996;28;20319;-74
2022/07/26 07:04:05;;;;;;;9.32;5.65;;;;;;;;;;6273375;28;20414;-73
2022/07/26 07:07:07;;;;;;;9.68;6.10;;;;;;;;;;6269376;28;20111;-74
2022/07/26 07:10:09;;;;;;;16.55;7.60;;;;;;;;;;6271564;28;20140;-74
2022/07/26 07:13:12;;;;;;;14.20;6.90;;;;;;;;;;6272268;28;20134;-74
2022/07/26 07:16:14;;;;;;;10.52;5.97;;;;;;;;;;6247894;28;20060;-73
2022/07/26 07:19:15;;;;;;;10.52;5.93;;;;;;;;;;6246015;28;20057;-74
2022/07/26 07:22:17;;;;;;;8.93;6.20;;;;;;;;;;6239479;28;20343;-74
2022/07/26 07:25:19;;;;;;;12.07;6.72;;;;;;;;;;6259605;28;20053;-73
2022/07/26 07:28:22;;;;;;;8.70;6.32;;;;;;;;;;6270513;28;20065;-74
2022/07/26 07:31:23;;;;;;;;;;;;;;;;;;6267586;28;20052;-73
2022/07/26 07:34:25;;;;;;;8.70;5.75;;;;;;;;;;6267040;28;19925;-73
2022/07/26 07:37:27;;;;;;;10.18;6.22;;;;;;;;;;6269041;28;20263;-74
2022/07/26 07:40:29;;;;;;;8.10;5.93;;;;;;;;;;6270599;28;20129;-73
2022/07/26 07:43:32;;;;;;;9.60;5.85;;;;;;;;;;6269361;28;20255;-74
2022/07/26 07:46:34;;;;;;;12.93;6.28;;;;;;;;;;6271335;28;20041;-75
2022/07/26 07:49:36;;;;;;;10.02;5.85;;;;;;;;;;6268649;28;20056;-74
2022/07/26 07:52:37;;;;;;;9.17;5.80;;;;;;;;;;6269984;28;20049;-74
2022/07/26 07:55:39;;;;;;;7.18;5.70;;;;;;;;;;6269586;28;20057;-74
2022/07/26 07:58:42;;;;;;;7.35;5.97;;;;;;;;;;6269046;28;20053;-74
2022/07/26 08:01:44;;;;;;;6.93;5.53;;;;;;;;;;6266490;28;20053;-74
2022/07/26 08:04:45;;;;;;;11.13;5.45;;;;;;;;;;6267895;28;20053;-73
2022/07/26 08:07:47;;;;;;;10.02;6.53;;;;;;;;;;6267901;28;20221;-73
2022/07/26 08:10:49;;;;;;;9.25;6.60;;;;;;;;;;6266112;28;20053;-73
2022/07/26 08:13:52;;;;;;;7.88;6.82;;;;;;;;;;6270233;28;20053;-73
2022/07/26 08:16:53;;;;;;;10.88;6.40;;;;;;;;;;6267540;28;20099;-73
2022/07/26 08:19:55;;;;;;;6.90;5.75;;;;;;;;;;6268976;28;20231;-73
2022/07/26 08:22:56;;;;;;;7.53;6.13;;;;;;;;;;6267246;28;20053;-73
2022/07/26 08:25:58;;;;;;;8.95;6.25;;;;;;;;;;6268572;28;20331;-73
2022/07/26 08:29:01;;;;;;;10.38;6.63;;;;;;;;;;6266452;28;20053;-73
2022/07/26 08:32:03;;;;;;;7.07;6.07;;;;;;;;;;6269472;28;20057;-73
2022/07/26 08:35:05;;;;;;;9.37;6.47;;;;;;;;;;6267949;28;20274;-72
2022/07/26 08:38:07;;;;;;;13.38;5.90;;;;;;;;;;6268968;28;20049;-75
2022/07/26 08:41:09;;;;;;;8.25;6.22;;;;;;;;;;6265800;28;20467;-75
2022/07/26 08:44:12;;;;;;;9.35;5.60;;;;;;;;;;6267033;28;20267;-74
2022/07/26 08:47:14;;;;;;;7.93;6.40;;;;;;;;;;6267399;28;20053;-72
2022/07/26 08:50:16;;;;;;;;;;;;;;;;;;6268344;28;20053;-72
2022/07/26 08:53:17;;;;;;;9.48;6.13;;;;;;;;;;6267341;28;20203;-75
2022/07/26 08:56:19;;;;;;;8.60;5.87;;;;;;;;;;6267897;28;20048;-74
2022/07/26 08:59:22;;;;;;;11.53;6.97;;;;;;;;;;6269432;28;20049;-74
2022/07/26 09:02:39;;;;;;;11.45;6.85;;;;;;;;;;6266823;28;20049;-74
2022/07/26 09:05:41;;;;;;;8.73;6.70;;;;;;;;;;6255031;28;20053;-73
2022/07/26 09:08:43;;;;;;;6.90;6.10;;;;;;;;;;6261881;28;20037;-73
2022/07/26 09:11:45;;;;;;;7.43;6.00;;;;;;;;;;6261581;28;20056;-72
2022/07/26 09:14:48;;;;;;;7.37;6.47;;;;;;;;;;6269338;28;20110;-74
2022/07/26 09:17:52;;;;;;;7.60;5.90;;;;;;;;;;6267888;28;20064;-74
2022/07/26 09:20:54;;;;;;;6.65;6.05;;;;;;;;;;6270071;28;20046;-74
2022/07/26 09:23:55;;;;;;;8.80;6.35;;;;;;;;;;6266324;28;20061;-74
2022/07/26 09:26:58;;;;;;;7.03;6.25;;;;;;;;;;6270383;28;20061;-74
2022/07/26 09:30:06;;;;;;;7.03;6.13;;;;;;;;;;6266729;28;20053;-73
2022/07/26 09:33:08;;;;;;;9.52;6.10;;;;;;;;;;6273541;28;20982;-74
2022/07/26 09:36:09;;;;;;;7.93;5.75;;;;;;;;;;6269801;28;20181;-72
2022/07/26 09:39:11;;;;;;;8.60;6.05;;;;;;;;;;6264179;28;20282;-72
2022/07/26 09:42:13;;;;;;;7.03;5.85;;;;;;;;;;6270638;28;20053;-74
2022/07/26 09:45:16;;;;;;;8.93;6.60;;;;;;;;;;6270810;28;20225;-74
2022/07/26 09:48:26;;;;;;;12.45;6.50;;;;;;;;;;6269264;28;20059;-74
2022/07/26 09:51:35;;;;;;;8.00;6.05;;;;;;;;;;6272797;28;20095;-74
2022/07/26 09:54:37;;;;;;;9.70;6.20;;;;;;;;;;6271724;28;20041;-74
2022/07/26 09:57:39;;;;;;;9.40;6.22;;;;;;;;;;6270235;28;20057;-75
2022/07/26 10:00:43;;;;;;;6.97;5.90;;;;;;;;;;6271727;28;20061;-74
2022/07/26 10:03:44;;;;;;;8.05;6.00;;;;;;;;;;6272806;28;20045;-73
2022/07/26 10:06:46;;;;;;;9.80;6.50;;;;;;;;;;6276329;28;20049;-74
2022/07/26 10:09:52;;;;;;;7.70;6.40;;;;;;;;;;6274214;28;20324;-74
2022/07/26 10:12:55;;;;;;;9.32;6.10;;;;;;;;;;6271077;28;20239;-74
2022/07/26 10:15:59;;;;;;;8.05;6.85;;;;;;;;;;6270245;28;20323;-73
2022/07/26 10:19:03;;;;;;;9.68;8.07;;;;;;;;;;6268175;28;20123;-74
2022/07/26 10:22:22;;;;;;;10.13;7.53;;;;;;;;;;6269238;28;20074;-74
2022/07/26 10:25:46;;;;;;;10.10;7.00;;;;;;;;;;6266516;28;20060;-73
2022/07/26 10:28:48;;;;;;;9.20;7.22;;;;;;;;;;6270749;28;20061;-74
2022/07/26 10:32:10;;;;;;;;;;;;;;;;;;6269917;28;20057;-74
2022/07/26 10:35:30;;;;;;;7.22;6.13;;;;;;;;;;6267242;28;19917;-74
2022/07/26 10:38:32;;;;;;;12.50;6.55;;;;;;;;;;6246360;28;20053;-75
2022/07/26 10:41:36;;;;;;;11.43;6.88;;;;;;;;;;6246186;28;20053;-75
2022/07/26 10:44:40;;;;;;;12.00;7.47;;;;;;;;;;6270193;28;20052;-74
2022/07/26 10:48:14;;;;;;;8.68;7.10;;;;;;;;;;6273366;28;20058;-74
2022/07/26 10:51:25;;;;;;;9.38;6.35;;;;;;;;;;6271876;28;20106;-73
2022/07/26 10:54:27;;;;;;;8.27;6.88;;;;;;;;;;6270883;28;20398;-75
2022/07/26 10:57:30;;;;;;;7.30;6.57;;;;;;;;;;6269711;28;20068;-74
2022/07/26 11:00:33;;;;;;;9.52;6.30;;;;;;;;;;6255594;28;20056;-75
2022/07/26 11:03:37;;;;;;;7.60;6.88;;;;;;;;;;6273749;28;20121;-75
2022/07/26 11:06:40;;;;;;;8.07;5.90;;;;;;;;;;6247690;28;20348;-75
2022/07/26 11:09:42;;;;;;;10.77;6.22;;;;;;;;;;6246746;28;20061;-74
2022/07/26 11:12:43;;;;;;;6.15;5.57;;;;;;;;;;6266990;28;20053;-75
2022/07/26 11:15:48;;;;;;;8.88;6.53;;;;;;;;;;6268963;28;20064;-74
2022/07/26 11:18:51;;;;;;;6.55;5.85;;;;;;;;;;6266631;28;20159;-74
2022/07/26 11:21:54;;;;;;;8.43;6.35;;;;;;;;;;6269648;28;20367;-72
2022/07/26 11:24:55;;;;;;;7.95;5.95;;;;;;;;;;6270147;28;20237;-73
2022/07/26 11:28:01;;;;;;;7.55;5.88;;;;;;;;;;6268990;28;20045;-74
2022/07/26 11:31:03;;;;;;;8.15;5.95;;;;;;;;;;6271003;28;20048;-75
2022/07/26 11:34:08;;;;;;;9.77;6.07;;;;;;;;;;6273359;28;20053;-75
2022/07/26 11:37:10;;;;;;;6.30;5.13;;;;;;;;;;6268307;28;20064;-74
2022/07/26 11:40:12;;;;;;;9.23;5.60;;;;;;;;;;6268140;28;20134;-72
2022/07/26 11:43:14;;;;;;;6.18;5.50;;;;;;;;;;6269544;28;21331;-72
2022/07/26 11:46:17;;;;;;;5.93;4.85;;;;;;;;;;6270331;28;20040;-75
2022/07/26 11:49:22;;;;;;;7.45;5.53;;;;;;;;;;6268717;28;20084;-73
2022/07/26 11:52:29;;;;;;;7.60;5.38;;;;;;;;;;6272899;28;20083;-73
2022/07/26 11:55:31;;;;;;;8.38;5.13;;;;;;;;;;6274112;28;20057;-74
2022/07/26 11:58:33;;;;;;;6.35;5.40;;;;;;;;;;6272630;28;20371;-75
2022/07/26 12:01:34;;;;;;;7.47;5.10;;;;;;;;;;6270736;28;20053;-74
2022/07/26 12:04:39;;;;;;;5.57;5.00;;;;;;;;;;6275969;28;20049;-75
2022/07/26 12:07:55;;;;;;;6.72;5.32;;;;;;;;;;6269824;28;20063;-76
2022/07/26 12:10:57;;;;;;;5.75;4.90;;;;;;;;;;6274685;28;20064;-75
2022/07/26 12:14:01;;;;;;;6.07;5.50;;;;;;;;;;6268417;28;20053;-74
2022/07/26 12:17:15;;;;;;;6.13;5.53;;;;;;;;;;6266913;28;20056;-74
2022/07/26 12:20:18;;;;;;;6.45;5.68;;;;;;;;;;6264097;28;20041;-75
2022/07/26 12:23:20;;;;;;;6.25;5.43;;;;;;;;;;6268079;28;20065;-75
2022/07/26 12:26:23;;;;;;;7.72;5.57;;;;;;;;;;6269737;28;20056;-75
2022/07/26 12:29:31;;;;;;;6.68;5.25;;;;;;;;;;6266404;28;20280;-74
2022/07/26 12:32:35;;;;;;;6.45;5.60;;;;;;;;;;6275663;28;20049;-73
2022/07/26 12:35:38;;;;;;;8.82;5.28;;;;;;;;;;6264829;28;20045;-74
2022/07/26 12:38:41;;;;;;;6.45;4.93;;;;;;;;;;6278358;28;20282;-76
2022/07/26 12:41:43;;;;;;;8.07;5.20;;;;;;;;;;6271112;28;20051;-75
2022/07/26 12:44:45;;;;;;;5.97;5.22;;;;;;;;;;6246216;28;20046;-74
2022/07/26 12:47:47;;;;;;;6.40;5.40;;;;;;;;;;6250494;28;20095;-74
2022/07/26 12:50:50;;;;;;;5.45;4.88;;;;;;;;;;6267270;28;20052;-73
2022/07/26 12:53:52;;;;;;;5.93;5.32;;;;;;;;;;6272864;28;20095;-75
2022/07/26 12:56:53;;;;;;;;;;;;;;;;;;6271585;28;20312;-76
2022/07/26 12:59:57;;;;;;;8.15;5.03;;;;;;;;;;6268008;28;19917;-74
2022/07/26 13:02:59;;;;;;;5.40;4.90;;;;;;;;;;6272560;28;20102;-74
2022/07/26 13:06:02;;;;;;;5.97;5.30;;;;;;;;;;6269658;28;20057;-72
2022/07/26 13:09:04;;;;;;;6.13;5.05;;;;;;;;;;6270993;28;20076;-73
2022/07/26 13:12:07;;;;;;;5.53;4.95;;;;;;;;;;6269813;28;20041;-73
2022/07/26 13:15:10;;;;;;;5.45;4.80;;;;;;;;;;6267546;28;20094;-73
2022/07/26 13:18:11;;;;;;;5.03;4.22;;;;;;;;;;6268666;28;20255;-73
2022/07/26 13:21:14;;;;;;;4.78;3.92;;;;;;;;;;6271937;28;20049;-73
2022/07/26 13:24:16;;;;;;;7.18;4.30;;;;;;;;;;6275618;28;20340;-76
2022/07/26 13:27:17;;;;;;;4.95;3.83;;;;;;;;;;6268122;28;20057;-75
2022/07/26 13:30:20;;;;;;;4.05;3.63;;;;;;;;;;6267445;28;20094;-76
2022/07/26 13:33:22;;;;;;;4.93;4.07;;;;;;;;;;6267858;28;20054;-76
2022/07/26 13:36:25;;;;;;;4.72;3.90;;;;;;;;;;6269342;28;20107;-75
2022/07/26 13:39:27;;;;;;;6.65;3.72;;;;;;;;;;6268260;28;20057;-77
2022/07/26 13:42:29;;;;;;;4.82;3.88;;;;;;;;;;6269922;28;20041;-76
2022/07/26 13:45:30;;;;;;;4.80;4.40;;;;;;;;;;6269112;28;20124;-75
2022/07/26 13:48:32;;;;;;;4.93;4.20;;;;;;;;;;6268611;28;20381;-76
2022/07/26 13:54:54;;;;;;;5.45;4.47;;;;;;;;;;6272876;28;19928;-74
2022/07/26 13:57:56;;;;;;;5.93;4.20;;;;;;;;;;6265308;28;20056;-78
2022/07/26 14:00:57;;;;;;;6.38;4.32;;;;;;;;;;6270699;28;20064;-75
2022/07/26 14:03:59;;;;;;;5.20;4.57;;;;;;;;;;6267362;28;20045;-76
2022/07/26 14:07:02;;;;;;;5.85;3.75;;;;;;;;;;6268649;28;20343;-72
2022/07/26 14:10:04;;;;;;;6.03;5.07;;;;;;;;;;6271782;28;20055;-74
2022/07/26 14:13:06;;;;;;;5.47;4.13;;;;;;;;;;6275759;28;20094;-75
2022/07/26 14:16:08;;;;;;;5.25;4.28;;;;;;;;;;6270322;28;20063;-74
2022/07/26 14:19:09;;;;;;;6.68;4.22;;;;;;;;;;6276588;28;20045;-75
2022/07/26 14:22:12;;;;;;;6.05;4.50;;;;;;;;;;6273516;28;20056;-74
2022/07/26 14:25:14;;;;;;;6.70;4.40;;;;;;;;;;6274081;28;20053;-74
2022/07/26 14:28:16;;;;;;;9.88;4.60;;;;;;;;;;6277480;28;20259;-73
2022/07/26 14:31:18;;;;;;;8.15;5.20;;;;;;;;;;6275404;28;20061;-75
2022/07/26 14:34:19;;;;;;;6.43;4.43;;;;;;;;;;6274276;28;20068;-75
2022/07/26 14:37:22;;;;;;;6.95;4.35;;;;;;;;;;6274098;28;20053;-76
2022/07/26 14:40:24;;;;;;;5.40;4.50;;;;;;;;;;6275107;28;20340;-75
2022/07/26 14:43:26;;;;;;;5.32;4.30;;;;;;;;;;6277066;28;20060;-76
2022/07/26 14:46:28;;;;;;;7.35;4.80;;;;;;;;;;6279128;28;20213;-75
2022/07/26 14:49:30;;;;;;;6.85;4.90;;;;;;;;;;6275986;28;20108;-75
2022/07/26 14:52:33;;;;;;;5.90;4.85;;;;;;;;;;6273863;28;20052;-75
2022/07/26 14:55:34;;;;;;;5.55;5.05;;;;;;;;;;6275073;28;20111;-75
2022/07/26 14:58:36;;;;;;;6.00;5.10;;;;;;;;;;6277166;28;20045;-76
2022/07/26 15:01:37;;;;;;;7.03;5.50;;;;;;;;;;6277360;28;20057;-75
2022/07/26 15:04:39;;;;;;;;;;;;;;;;;;6270731;28;20046;-73
2022/07/26 15:07:43;;;;;;;7.10;5.45;;;;;;;;;;6276153;28;19958;-74
2022/07/26 15:10:44;;;;;;;8.25;5.00;;;;;;;;;;6273253;28;20050;-73
2022/07/26 15:13:46;;;;;;;7.95;5.32;;;;;;;;;;6275862;28;20336;-72
2022/07/26 15:16:48;;;;;;;7.07;5.20;;;;;;;;;;6273687;28;20053;-73
2022/07/26 15:19:49;;;;;;;8.80;6.10;;;;;;;;;;6276090;28;20083;-72
2022/07/26 15:22:53;;;;;;;6.65;4.70;;;;;;;;;;6272402;28;20057;-73
2022/07/26 15:25:55;;;;;;;8.25;5.57;;;;;;;;;;6273672;28;20076;-73
2022/07/26 15:28:56;;;;;;;7.72;5.30;;;;;;;;;;6272371;28;20052;-72
2022/07/26 15:31:58;;;;;;;7.72;6.10;;;;;;;;;;6274314;28;20045;-73
2022/07/26 15:35:00;;;;;;;8.48;5.93;;;;;;;;;;6273835;28;20049;-74
2022/07/26 15:38:03;;;;;;;6.05;5.22;;;;;;;;;;6275482;28;20057;-72
2022/07/26 15:41:05;;;;;;;8.13;6.63;;;;;;;;;;6270830;28;20045;-74
2022/07/26 15:44:06;;;;;;;10.00;6.18;;;;;;;;;;6272403;28;20125;-74
2022/07/26 15:47:08;;;;;;;6.57;5.57;;;;;;;;;;6273968;28;20057;-72
2022/07/26 15:50:12;;;;;;;11.95;6.00;;;;;;;;;;6273031;28;20049;-72
2022/07/26 15:53:16;;;;;;;12.02;5.90;;;;;;;;;;6273189;28;20049;-71
2022/07/26 15:56:18;;;;;;;8.05;6.15;;;;;;;;;;6270294;28;20055;-72
2022/07/26 15:59:19;;;;;;;7.40;5.93;;;;;;;;;;6271098;28;20068;-72
2022/07/26 16:02:21;;;;;;;7.10;6.00;;;;;;;;;;6266717;28;20064;-72
2022/07/26 16:05:22;;;;;;;9.27;6.20;;;;;;;;;;6268263;28;20356;-71
2022/07/26 16:08:26;;;;;;;10.35;6.53;;;;;;;;;;6265426;28;20099;-71
2022/07/26 16:11:27;;;;;;;8.85;5.18;;;;;;;;;;6264699;28;20085;-72
2022/07/26 16:14:30;;;;;;;8.60;4.85;;;;;;;;;;6266743;28;20060;-71
2022/07/26 16:17:32;;;;;;;6.30;5.28;;;;;;;;;;6265528;28;20208;-71
2022/07/26 16:20:34;;;;;;;7.65;5.38;;;;;;;;;;6272796;28;20106;-71
2022/07/26 16:23:37;;;;;;;8.88;5.20;;;;;;;;;;6268356;28;20185;-71
2022/07/26 16:26:39;;;;;;;8.40;6.13;;;;;;;;;;6268918;28;20052;-71
2022/07/26 16:29:41;;;;;;;9.07;6.30;;;;;;;;;;6269002;28;20099;-72
2022/07/26 16:32:43;;;;;;;7.25;5.53;;;;;;;;;;6268060;28;20240;-71
2022/07/26 16:35:44;;;;;;;11.60;6.50;;;;;;;;;;6266300;28;20057;-72
2022/07/26 16:38:47;;;;;;;7.23;6.30;;;;;;;;;;6267807;28;20057;-71
2022/07/26 16:41:49;;;;;;;7.85;6.22;;;;;;;;;;6270655;28;20467;-72
2022/07/26 16:44:51;;;;;;;8.13;6.13;;;;;;;;;;6269253;28;20335;-71
2022/07/26 16:47:52;;;;;;;7.72;6.15;;;;;;;;;;6272514;28;20103;-73
2022/07/26 16:50:54;;;;;;;8.77;6.67;;;;;;;;;;6273254;28;20049;-75
2022/07/26 16:53:57;;;;;;;6.77;5.50;;;;;;;;;;6269527;28;20072;-75
2022/07/26 16:56:59;;;;;;;5.95;5.28;;;;;;;;;;6273942;28;20647;-76
2022/07/26 17:00:00;;;;;;;6.60;5.70;;;;;;;;;;6266090;28;20045;-74
2022/07/26 17:03:02;;;;;;;8.33;5.67;;;;;;;;;;6274495;28;20386;-73
2022/07/26 17:06:05;;;;;;;7.53;6.23;;;;;;;;;;6264017;28;20482;-76
2022/07/26 17:09:08;;;;;;;7.53;5.72;;;;;;;;;;6258525;28;20120;-74
2022/07/26 17:12:10;;;;;;;5.93;5.35;;;;;;;;;;6245375;28;20061;-77
2022/07/26 17:15:12;;;;;;;6.10;4.97;;;;;;;;;;6239186;28;20331;-75
2022/07/26 17:18:13;;;;;;;7.90;5.57;;;;;;;;;;6241754;28;20329;-75
2022/07/26 17:21:15;;;;;;;8.98;5.80;;;;;;;;;;6264182;28;20475;-76
2022/07/26 17:24:18;;;;;;;10.37;5.30;;;;;;;;;;6260652;28;20057;-75
2022/07/26 17:27:20;;;;;;;7.10;5.10;;;;;;;;;;6248395;28;20460;-75
2022/07/26 17:30:21;;;;;;;5.90;4.93;;;;;;;;;;6245365;28;20373;-77
2022/07/26 17:33:23;;;;;;;9.47;5.07;;;;;;;;;;6243059;28;20058;-76
2022/07/26 17:36:27;;;;;;;6.43;5.15;;;;;;;;;;6248571;28;20053;-74
2022/07/26 17:39:31;;;;;;;7.10;5.15;;;;;;;;;;6247826;28;20126;-77
2022/07/26 17:42:32;;;;;;;8.70;5.57;;;;;;;;;;6246574;28;20038;-77
2022/07/26 17:45:34;;;;;;;7.97;5.10;;;;;;;;;;6264025;28;20052;-77
2022/07/26 17:48:36;;;;;;;6.97;5.50;;;;;;;;;;6271083;28;20060;-76
2022/07/26 17:51:37;;;;;;;6.13;5.53;;;;;;;;;;6268766;28;20080;-75
2022/07/26 17:54:40;;;;;;;7.43;5.57;;;;;;;;;;6267439;28;20049;-74
2022/07/26 17:57:43;;;;;;;8.07;6.07;;;;;;;;;;6263823;28;20056;-73
2022/07/26 18:00:46;;;;;;;8.48;5.70;;;;;;;;;;6263052;28;20047;-76
2022/07/26 18:03:48;;;;;;;10.90;5.32;;;;;;;;;;6265716;28;20045;-75
2022/07/26 18:06:50;;;;;;;9.15;5.47;;;;;;;;;;6263696;28;20106;-73
2022/07/26 18:09:53;;;;;;;7.53;4.93;;;;;;;;;;6264201;28;20324;-74
2022/07/26 18:12:55;;;;;;;10.25;5.45;;;;;;;;;;6258864;28;20053;-72
2022/07/26 18:15:57;;;;;;;6.33;5.67;;;;;;;;;;6262803;28;20405;-76
2022/07/26 18:18:59;;;;;;;5.88;5.25;;;;;;;;;;6262971;28;20472;-74
2022/07/26 18:22:00;;;;;;;7.35;5.13;;;;;;;;;;6263999;28;20052;-74